sensor_id;sensor_type;location;lat;lon;timestamp;pressure;altitude;pressure_sealevel;temperature;humidity
32873;BME280;19224;52.462;16.898;2022-09-17T00:00:33;98881.41;;;10.75;100.00
32873;BME280;19224;52.462;16.898;2022-09-17T00:03:06;98882.38;;;10.74;100.00
32873;BME280;19224;52.462;16.898;2022-09-17T00:05:37;98881.91;;;10.74;100.00
32873;BME280;19224;52.462;16.898;2022-09-17T00:08:11;98877.59;;;10.72;100.00
32873;BME280;19224;52.462;16.898;2022-09-17T00:10:46;98878.18;;;10.70;100.00
32873;BME280;19224;52.462;16.898;2022-09-17T00:13:25;98874.55;;;10.64;100.00
32873;BME280;19224;52.462;16.898;2022-09-17T00:15:55;98874.55;;;10.64;100.00
32873;BME280;19224;52.462;16.898;2022-09-17T00:18:25;98873.79;;;10.62;100.00
32873;BME280;19224;52.462;16.898;2022-09-17T00:20:55;98865.34;;;10.61;100.00
32873;BME280;19224;52.462;16.898;2022-09-17T00:23:25;98869.38;;;10.61;100.00
32873;BME280;19224;52.462;16.898;2022-09-17T00:25:55;98869.75;;;10.62;100.00
32873;BME280;19224;52.462;16.898;2022-09-17T00:28:26;98870.70;;;10.68;100.00
32873;BME280;19224;52.462;16.898;2022-09-17T00:30:57;98863.75;;;10.71;100.00
32873;BME280;19224;52.462;16.898;2022-09-17T00:33:27;98871.30;;;10.78;100.00
32873;BME280;19224;52.462;16.898;2022-09-17T00:36:01;98879.06;;;10.83;100.00
32873;BME280;19224;52.462;16.898;2022-09-17T00:38:33;98881.92;;;10.87;100.00
32873;BME280;19224;52.462;16.898;2022-09-17T00:41:05;98886.52;;;10.92;100.00
32873;BME280;19224;52.462;16.898;2022-09-17T00:43:42;98885.33;;;10.96;100.00
32873;BME280;19224;52.462;16.898;2022-09-17T00:49:23;98886.52;;;11.04;100.00
32873;BME280;19224;52.462;16.898;2022-09-17T00:52:04;98893.91;;;11.08;100.00
32873;BME280;19224;52.462;16.898;2022-09-17T00:54:33;98890.16;;;11.10;100.00
32873;BME280;19224;52.462;16.898;2022-09-17T00:57:04;98881.75;;;11.15;100.00
32873;BME280;19224;52.462;16.898;2022-09-17T00:59:35;98879.59;;;11.20;100.00
32873;BME280;19224;52.462;16.898;2022-09-17T01:02:07;98875.36;;;11.23;100.00
32873;BME280;19224;52.462;16.898;2022-09-17T01:04:37;98872.66;;;11.23;100.00
32873;BME280;19224;52.462;16.898;2022-09-17T01:07:28;98866.48;;;11.21;100.00
32873;BME280;19224;52.462;16.898;2022-09-17T01:10:27;98868.72;;;11.21;100.00
32873;BME280;19224;52.462;16.898;2022-09-17T01:30:57;98861.81;;;11.30;100.00
32873;BME280;19224;52.462;16.898;2022-09-17T01:36:37;98868.08;;;11.30;100.00
32873;BME280;19224;52.462;16.898;2022-09-17T01:47:53;98879.34;;;11.42;100.00
32873;BME280;19224;52.462;16.898;2022-09-17T01:50:32;98873.34;;;11.32;100.00
32873;BME280;19224;52.462;16.898;2022-09-17T01:53:06;98874.87;;;11.36;100.00
32873;BME280;19224;52.462;16.898;2022-09-17T01:55:40;98872.32;;;11.40;100.00
32873;BME280;19224;52.462;16.898;2022-09-17T01:58:21;98870.23;;;11.38;100.00
32873;BME280;19224;52.462;16.898;2022-09-17T02:01:01;98874.13;;;11.34;100.00
32873;BME280;19224;52.462;16.898;2022-09-17T02:03:45;98876.16;;;11.30;100.00
32873;BME280;19224;52.462;16.898;2022-09-17T02:06:28;98879.77;;;11.24;100.00
32873;BME280;19224;52.462;16.898;2022-09-17T02:09:06;98874.11;;;11.21;100.00
32873;BME280;19224;52.462;16.898;2022-09-17T02:11:38;98873.23;;;11.21;100.00
32873;BME280;19224;52.462;16.898;2022-09-17T02:14:19;98874.80;;;11.18;100.00
32873;BME280;19224;52.462;16.898;2022-09-17T02:16:58;98870.66;;;11.19;100.00
32873;BME280;19224;52.462;16.898;2022-09-17T02:19:35;98875.67;;;11.18;100.00
32873;BME280;19224;52.462;16.898;2022-09-17T02:22:27;98875.24;;;11.12;100.00
32873;BME280;19224;52.462;16.898;2022-09-17T02:25:27;98877.94;;;11.12;100.00
32873;BME280;19224;52.462;16.898;2022-09-17T02:28:07;98866.72;;;11.18;100.00
32873;BME280;19224;52.462;16.898;2022-09-17T02:30:36;98872.85;;;11.20;100.00
32873;BME280;19224;52.462;16.898;2022-09-17T02:33:13;98877.17;;;11.22;100.00
32873;BME280;19224;52.462;16.898;2022-09-17T02:35:44;98877.27;;;11.21;100.00
32873;BME280;19224;52.462;16.898;2022-09-17T02:38:28;98875.51;;;11.27;100.00
32873;BME280;19224;52.462;16.898;2022-09-17T02:41:16;98881.59;;;11.23;100.00
32873;BME280;19224;52.462;16.898;2022-09-17T02:49:57;98873.41;;;11.25;100.00
32873;BME280;19224;52.462;16.898;2022-09-17T02:55:51;98872.98;;;11.18;100.00
32873;BME280;19224;52.462;16.898;2022-09-17T02:58:44;98861.23;;;11.19;100.00
32873;BME280;19224;52.462;16.898;2022-09-17T03:04:33;98871.47;;;11.27;100.00
32873;BME280;19224;52.462;16.898;2022-09-17T03:07:12;98862.82;;;11.22;100.00
32873;BME280;19224;52.462;16.898;2022-09-17T03:09:44;98863.80;;;11.21;100.00
32873;BME280;19224;52.462;16.898;2022-09-17T03:12:15;98866.62;;;11.19;100.00
32873;BME280;19224;52.462;16.898;2022-09-17T03:14:45;98874.01;;;11.23;100.00
32873;BME280;19224;52.462;16.898;2022-09-17T03:17:16;98872.38;;;11.20;100.00
32873;BME280;19224;52.462;16.898;2022-09-17T03:19:46;98878.23;;;11.20;100.00
32873;BME280;19224;52.462;16.898;2022-09-17T03:22:16;98874.25;;;11.25;100.00
32873;BME280;19224;52.462;16.898;2022-09-17T03:24:46;98876.85;;;11.27;100.00
32873;BME280;19224;52.462;16.898;2022-09-17T03:27:16;98868.67;;;11.28;100.00
32873;BME280;19224;52.462;16.898;2022-09-17T03:29:48;98873.09;;;11.29;100.00
32873;BME280;19224;52.462;16.898;2022-09-17T03:32:20;98869.30;;;11.32;100.00
32873;BME280;19224;52.462;16.898;2022-09-17T03:34:51;98871.14;;;11.31;100.00
32873;BME280;19224;52.462;16.898;2022-09-17T03:37:22;98868.77;;;11.27;100.00
32873;BME280;19224;52.462;16.898;2022-09-17T03:39:57;98872.91;;;11.25;100.00
32873;BME280;19224;52.462;16.898;2022-09-17T03:42:27;98878.98;;;11.22;100.00
32873;BME280;19224;52.462;16.898;2022-09-17T03:45:00;98869.62;;;11.15;100.00
32873;BME280;19224;52.462;16.898;2022-09-17T03:47:31;98880.84;;;11.21;100.00
32873;BME280;19224;52.462;16.898;2022-09-17T03:50:06;98880.34;;;11.22;100.00
32873;BME280;19224;52.462;16.898;2022-09-17T03:52:41;98892.00;;;11.22;100.00
32873;BME280;19224;52.462;16.898;2022-09-17T03:55:12;98885.53;;;11.25;100.00
32873;BME280;19224;52.462;16.898;2022-09-17T03:57:48;98881.65;;;11.29;100.00
32873;BME280;19224;52.462;16.898;2022-09-17T04:00:19;98889.27;;;11.29;100.00
32873;BME280;19224;52.462;16.898;2022-09-17T04:02:50;98890.23;;;11.28;100.00
32873;BME280;19224;52.462;16.898;2022-09-17T04:05:20;98897.81;;;11.29;100.00
32873;BME280;19224;52.462;16.898;2022-09-17T04:07:53;98884.62;;;11.31;100.00
32873;BME280;19224;52.462;16.898;2022-09-17T04:10:27;98895.27;;;11.33;100.00
32873;BME280;19224;52.462;16.898;2022-09-17T04:13:01;98889.69;;;11.36;100.00
32873;BME280;19224;52.462;16.898;2022-09-17T04:15:31;98888.72;;;11.37;100.00
32873;BME280;19224;52.462;16.898;2022-09-17T04:18:01;98887.19;;;11.33;100.00
32873;BME280;19224;52.462;16.898;2022-09-17T04:20:31;98890.61;;;11.29;100.00
32873;BME280;19224;52.462;16.898;2022-09-17T04:23:05;98892.65;;;11.26;100.00
32873;BME280;19224;52.462;16.898;2022-09-17T04:25:37;98892.39;;;11.36;100.00
32873;BME280;19224;52.462;16.898;2022-09-17T04:28:08;98892.77;;;11.37;100.00
32873;BME280;19224;52.462;16.898;2022-09-17T04:30:38;98897.92;;;11.40;100.00
32873;BME280;19224;52.462;16.898;2022-09-17T04:33:11;98904.44;;;11.43;100.00
32873;BME280;19224;52.462;16.898;2022-09-17T04:35:42;98892.44;;;11.41;100.00
32873;BME280;19224;52.462;16.898;2022-09-17T04:38:11;98896.73;;;11.44;100.00
32873;BME280;19224;52.462;16.898;2022-09-17T04:40:44;98895.38;;;11.44;100.00
32873;BME280;19224;52.462;16.898;2022-09-17T04:43:22;98901.00;;;11.41;100.00
32873;BME280;19224;52.462;16.898;2022-09-17T04:45:52;98895.45;;;11.37;100.00
32873;BME280;19224;52.462;16.898;2022-09-17T04:48:22;98899.50;;;11.37;100.00
32873;BME280;19224;52.462;16.898;2022-09-17T04:50:55;98909.09;;;11.41;100.00
32873;BME280;19224;52.462;16.898;2022-09-17T04:53:31;98915.45;;;11.40;100.00
32873;BME280;19224;52.462;16.898;2022-09-17T04:56:02;98909.68;;;11.39;100.00
32873;BME280;19224;52.462;16.898;2022-09-17T04:58:37;98912.38;;;11.39;100.00
32873;BME280;19224;52.462;16.898;2022-09-17T05:01:09;98917.73;;;11.46;100.00
32873;BME280;19224;52.462;16.898;2022-09-17T05:03:39;98917.73;;;11.46;100.00
32873;BME280;19224;52.462;16.898;2022-09-17T05:06:10;98926.25;;;11.52;100.00
32873;BME280;19224;52.462;16.898;2022-09-17T05:08:41;98921.70;;;11.53;100.00
32873;BME280;19224;52.462;16.898;2022-09-17T05:11:12;98935.63;;;11.47;100.00
32873;BME280;19224;52.462;16.898;2022-09-17T05:13:51;98932.22;;;11.38;100.00
32873;BME280;19224;52.462;16.898;2022-09-17T05:16:18;98935.81;;;11.44;100.00
32873;BME280;19224;52.462;16.898;2022-09-17T05:18:51;98931.08;;;11.47;100.00
32873;BME280;19224;52.462;16.898;2022-09-17T05:21:27;98942.56;;;11.44;100.00
32873;BME280;19224;52.462;16.898;2022-09-17T05:23:56;98947.95;;;11.44;100.00
32873;BME280;19224;52.462;16.898;2022-09-17T05:26:26;98947.95;;;11.44;100.00
32873;BME280;19224;52.462;16.898;2022-09-17T05:28:57;98947.38;;;11.46;100.00
32873;BME280;19224;52.462;16.898;2022-09-17T05:31:28;98949.82;;;11.56;100.00
32873;BME280;19224;52.462;16.898;2022-09-17T05:33:59;98956.37;;;11.59;100.00
32873;BME280;19224;52.462;16.898;2022-09-17T05:36:33;98965.48;;;11.63;100.00
32873;BME280;19224;52.462;16.898;2022-09-17T05:39:05;98955.67;;;11.62;100.00
32873;BME280;19224;52.462;16.898;2022-09-17T05:41:35;98957.64;;;11.66;100.00
32873;BME280;19224;52.462;16.898;2022-09-17T05:44:10;98960.19;;;11.62;100.00
32873;BME280;19224;52.462;16.898;2022-09-17T05:46:42;98971.31;;;11.70;100.00
32873;BME280;19224;52.462;16.898;2022-09-17T05:49:13;98972.34;;;11.74;100.00
32873;BME280;19224;52.462;16.898;2022-09-17T05:51:45;98962.07;;;11.79;100.00
32873;BME280;19224;52.462;16.898;2022-09-17T05:54:16;98959.80;;;11.86;100.00
32873;BME280;19224;52.462;16.898;2022-09-17T05:56:49;98971.47;;;11.86;100.00
32873;BME280;19224;52.462;16.898;2022-09-17T05:59:20;98967.75;;;11.82;100.00
32873;BME280;19224;52.462;16.898;2022-09-17T06:01:50;98964.03;;;11.90;100.00
32873;BME280;19224;52.462;16.898;2022-09-17T06:04:21;98960.35;;;11.91;100.00
32873;BME280;19224;52.462;16.898;2022-09-17T06:06:51;98970.77;;;11.90;100.00
32873;BME280;19224;52.462;16.898;2022-09-17T06:09:21;98968.64;;;11.88;100.00
32873;BME280;19224;52.462;16.898;2022-09-17T06:11:53;98984.63;;;11.78;100.00
32873;BME280;19224;52.462;16.898;2022-09-17T06:14:23;98977.51;;;11.77;100.00
32873;BME280;19224;52.462;16.898;2022-09-17T06:16:54;98990.62;;;11.76;100.00
32873;BME280;19224;52.462;16.898;2022-09-17T06:19:25;98986.13;;;11.82;100.00
32873;BME280;19224;52.462;16.898;2022-09-17T06:22:01;99011.94;;;11.86;100.00
32873;BME280;19224;52.462;16.898;2022-09-17T06:24:35;99002.06;;;11.80;100.00
32873;BME280;19224;52.462;16.898;2022-09-17T06:27:11;99008.20;;;11.82;100.00
32873;BME280;19224;52.462;16.898;2022-09-17T06:29:41;99001.94;;;11.81;100.00
32873;BME280;19224;52.462;16.898;2022-09-17T06:32:13;99006.70;;;11.78;100.00
32873;BME280;19224;52.462;16.898;2022-09-17T06:34:45;99003.83;;;11.74;100.00
32873;BME280;19224;52.462;16.898;2022-09-17T06:37:15;99010.68;;;11.85;100.00
32873;BME280;19224;52.462;16.898;2022-09-17T06:39:45;99015.48;;;11.87;100.00
32873;BME280;19224;52.462;16.898;2022-09-17T06:42:18;99002.55;;;11.92;100.00
32873;BME280;19224;52.462;16.898;2022-09-17T06:44:52;99002.09;;;11.97;100.00
32873;BME280;19224;52.462;16.898;2022-09-17T06:47:24;99010.74;;;12.02;100.00
32873;BME280;19224;52.462;16.898;2022-09-17T06:49:54;99004.70;;;11.99;100.00
32873;BME280;19224;52.462;16.898;2022-09-17T06:52:27;99006.84;;;12.06;100.00
32873;BME280;19224;52.462;16.898;2022-09-17T06:54:58;99000.74;;;11.97;100.00
32873;BME280;19224;52.462;16.898;2022-09-17T06:57:29;98999.49;;;12.08;100.00
32873;BME280;19224;52.462;16.898;2022-09-17T07:00:00;99004.05;;;12.08;100.00
32873;BME280;19224;52.462;16.898;2022-09-17T07:02:30;99000.33;;;12.21;100.00
32873;BME280;19224;52.462;16.898;2022-09-17T07:05:06;98998.93;;;12.28;100.00
32873;BME280;19224;52.462;16.898;2022-09-17T07:07:42;99005.49;;;12.37;100.00
32873;BME280;19224;52.462;16.898;2022-09-17T07:10:10;98999.86;;;12.34;100.00
32873;BME280;19224;52.462;16.898;2022-09-17T07:12:43;99002.70;;;12.38;100.00
32873;BME280;19224;52.462;16.898;2022-09-17T07:15:13;99006.14;;;12.40;100.00
32873;BME280;19224;52.462;16.898;2022-09-17T07:17:46;99006.89;;;12.42;100.00
32873;BME280;19224;52.462;16.898;2022-09-17T07:20:17;99001.28;;;12.45;100.00
32873;BME280;19224;52.462;16.898;2022-09-17T07:23:00;99002.27;;;12.44;100.00
32873;BME280;19224;52.462;16.898;2022-09-17T07:25:30;99002.91;;;12.53;100.00
32873;BME280;19224;52.462;16.898;2022-09-17T07:28:03;99003.09;;;12.57;100.00
32873;BME280;19224;52.462;16.898;2022-09-17T07:30:33;99000.16;;;12.60;100.00
32873;BME280;19224;52.462;16.898;2022-09-17T07:33:05;98994.83;;;12.71;100.00
32873;BME280;19224;52.462;16.898;2022-09-17T07:35:35;98995.56;;;12.73;100.00
32873;BME280;19224;52.462;16.898;2022-09-17T07:38:09;98989.52;;;12.70;100.00
32873;BME280;19224;52.462;16.898;2022-09-17T07:40:37;99008.84;;;12.76;100.00
32873;BME280;19224;52.462;16.898;2022-09-17T07:43:07;99006.37;;;12.73;100.00
32873;BME280;19224;52.462;16.898;2022-09-17T07:45:39;99001.47;;;12.73;100.00
32873;BME280;19224;52.462;16.898;2022-09-17T07:48:09;99002.18;;;12.69;100.00
32873;BME280;19224;52.462;16.898;2022-09-17T07:50:40;99015.79;;;12.68;100.00
32873;BME280;19224;52.462;16.898;2022-09-17T07:53:10;99010.66;;;12.70;100.00
32873;BME280;19224;52.462;16.898;2022-09-17T07:55:40;99014.34;;;12.69;100.00
32873;BME280;19224;52.462;16.898;2022-09-17T07:58:11;99004.38;;;12.70;100.00
32873;BME280;19224;52.462;16.898;2022-09-17T08:00:41;99010.86;;;12.62;100.00
32873;BME280;19224;52.462;16.898;2022-09-17T08:03:11;99010.29;;;12.69;100.00
32873;BME280;19224;52.462;16.898;2022-09-17T08:05:42;99003.13;;;12.86;100.00
32873;BME280;19224;52.462;16.898;2022-09-17T08:08:14;99002.84;;;12.96;100.00
32873;BME280;19224;52.462;16.898;2022-09-17T08:10:44;99012.73;;;13.08;100.00
32873;BME280;19224;52.462;16.898;2022-09-17T08:13:20;99006.38;;;13.15;100.00
32873;BME280;19224;52.462;16.898;2022-09-17T08:15:50;99009.79;;;13.35;100.00
32873;BME280;19224;52.462;16.898;2022-09-17T08:18:20;99004.73;;;13.65;100.00
32873;BME280;19224;52.462;16.898;2022-09-17T08:20:50;99011.31;;;13.95;100.00
32873;BME280;19224;52.462;16.898;2022-09-17T08:23:21;99011.83;;;14.00;100.00
32873;BME280;19224;52.462;16.898;2022-09-17T08:25:58;99002.70;;;13.96;100.00
32873;BME280;19224;52.462;16.898;2022-09-17T08:28:31;99012.56;;;14.02;100.00
32873;BME280;19224;52.462;16.898;2022-09-17T08:31:05;99005.42;;;13.96;100.00
32873;BME280;19224;52.462;16.898;2022-09-17T08:33:39;99015.72;;;13.85;100.00
32873;BME280;19224;52.462;16.898;2022-09-17T08:36:14;99014.36;;;13.85;100.00
32873;BME280;19224;52.462;16.898;2022-09-17T08:38:51;99010.32;;;13.96;100.00
32873;BME280;19224;52.462;16.898;2022-09-17T08:41:34;99026.09;;;14.02;100.00
32873;BME280;19224;52.462;16.898;2022-09-17T08:46:57;99021.53;;;14.08;100.00
32873;BME280;19224;52.462;16.898;2022-09-17T08:52:34;99021.95;;;14.31;100.00
32873;BME280;19224;52.462;16.898;2022-09-17T09:01:38;99016.39;;;14.76;100.00
32873;BME280;19224;52.462;16.898;2022-09-17T09:07:14;99014.94;;;14.67;100.00
32873;BME280;19224;52.462;16.898;2022-09-17T09:09:54;99031.42;;;14.64;100.00
32873;BME280;19224;52.462;16.898;2022-09-17T09:12:29;99030.21;;;14.62;100.00
32873;BME280;19224;52.462;16.898;2022-09-17T09:17:49;99024.01;;;14.77;100.00
32873;BME280;19224;52.462;16.898;2022-09-17T09:20:47;99023.04;;;14.83;100.00
32873;BME280;19224;52.462;16.898;2022-09-17T09:23:42;99029.90;;;14.98;100.00
32873;BME280;19224;52.462;16.898;2022-09-17T09:26:22;99030.88;;;15.03;100.00
32873;BME280;19224;52.462;16.898;2022-09-17T09:34:41;99031.88;;;15.44;100.00
32873;BME280;19224;52.462;16.898;2022-09-17T09:37:26;99033.84;;;15.48;100.00
32873;BME280;19224;52.462;16.898;2022-09-17T09:40:11;99050.87;;;15.44;100.00
32873;BME280;19224;52.462;16.898;2022-09-17T09:42:36;99050.16;;;15.37;100.00
32873;BME280;19224;52.462;16.898;2022-09-17T09:45:21;99043.48;;;15.72;100.00
32873;BME280;19224;52.462;16.898;2022-09-17T09:48:22;99039.65;;;15.95;100.00
32873;BME280;19224;52.462;16.898;2022-09-17T09:51:09;99038.78;;;16.10;100.00
32873;BME280;19224;52.462;16.898;2022-09-17T09:53:52;99031.72;;;16.18;100.00
32873;BME280;19224;52.462;16.898;2022-09-17T09:59:14;99041.94;;;16.41;99.02
32873;BME280;19224;52.462;16.898;2022-09-17T10:01:44;99047.23;;;16.57;97.61
32873;BME280;19224;52.462;16.898;2022-09-17T10:04:24;99040.41;;;16.78;96.13
32873;BME280;19224;52.462;16.898;2022-09-17T10:07:06;99035.41;;;17.07;93.66
32873;BME280;19224;52.462;16.898;2022-09-17T10:09:43;99045.71;;;17.13;92.99
32873;BME280;19224;52.462;16.898;2022-09-17T10:12:16;99037.89;;;17.04;91.35
32873;BME280;19224;52.462;16.898;2022-09-17T10:14:49;99039.80;;;16.98;91.52
32873;BME280;19224;52.462;16.898;2022-09-17T10:17:24;99055.13;;;16.75;92.05
32873;BME280;19224;52.462;16.898;2022-09-17T10:22:44;99032.11;;;16.64;91.74
32873;BME280;19224;52.462;16.898;2022-09-17T10:25:40;99044.94;;;16.68;90.02
32873;BME280;19224;52.462;16.898;2022-09-17T10:28:04;99041.66;;;16.74;90.80
32873;BME280;19224;52.462;16.898;2022-09-17T10:30:35;99041.48;;;16.81;90.91
32873;BME280;19224;52.462;16.898;2022-09-17T10:33:21;99039.80;;;16.59;92.23
32873;BME280;19224;52.462;16.898;2022-09-17T10:38:41;99042.80;;;16.56;91.66
32873;BME280;19224;52.462;16.898;2022-09-17T10:41:19;99050.64;;;16.50;91.92
32873;BME280;19224;52.462;16.898;2022-09-17T10:43:53;99051.56;;;16.45;92.26
32873;BME280;19224;52.462;16.898;2022-09-17T10:46:27;99057.53;;;16.33;92.05
32873;BME280;19224;52.462;16.898;2022-09-17T10:49:24;99054.85;;;16.28;91.99
32873;BME280;19224;52.462;16.898;2022-09-17T10:51:50;99060.01;;;16.31;91.63
32873;BME280;19224;52.462;16.898;2022-09-17T10:55:09;99050.92;;;16.47;89.84
32873;BME280;19224;52.462;16.898;2022-09-17T10:58:00;99049.63;;;16.66;84.85
32873;BME280;19224;52.462;16.898;2022-09-17T11:04:09;99053.69;;;16.95;84.36
32873;BME280;19224;52.462;16.898;2022-09-17T11:15:43;99037.84;;;17.53;79.92
32873;BME280;19224;52.462;16.898;2022-09-17T11:18:46;99044.53;;;17.74;77.98
32873;BME280;19224;52.462;16.898;2022-09-17T11:24:43;99038.72;;;17.82;76.36
32873;BME280;19224;52.462;16.898;2022-09-17T11:30:21;99027.25;;;17.50;83.65
32873;BME280;19224;52.462;16.898;2022-09-17T11:35:56;99033.63;;;17.21;89.36
32873;BME280;19224;52.462;16.898;2022-09-17T11:38:40;99024.59;;;16.87;90.78
32873;BME280;19224;52.462;16.898;2022-09-17T11:44:31;99030.04;;;16.27;92.64
32873;BME280;19224;52.462;16.898;2022-09-17T11:47:12;99042.34;;;16.16;93.63
32873;BME280;19224;52.462;16.898;2022-09-17T11:50:15;99045.49;;;16.06;94.28
32873;BME280;19224;52.462;16.898;2022-09-17T11:55:50;99045.06;;;16.31;96.89
32873;BME280;19224;52.462;16.898;2022-09-17T12:01:14;99035.12;;;16.61;97.08
32873;BME280;19224;52.462;16.898;2022-09-17T12:03:50;99042.63;;;16.88;95.94
32873;BME280;19224;52.462;16.898;2022-09-17T12:06:37;99036.77;;;17.07;92.78
32873;BME280;19224;52.462;16.898;2022-09-17T12:09:23;99035.64;;;17.19;92.48
32873;BME280;19224;52.462;16.898;2022-09-17T12:12:16;99028.42;;;17.33;93.55
32873;BME280;19224;52.462;16.898;2022-09-17T12:15:11;99037.08;;;17.47;92.70
32873;BME280;19224;52.462;16.898;2022-09-17T12:20:35;99028.53;;;17.84;86.26
32873;BME280;19224;52.462;16.898;2022-09-17T12:23:11;99027.39;;;18.19;85.06
32873;BME280;19224;52.462;16.898;2022-09-17T12:25:53;99026.69;;;18.17;82.84
32873;BME280;19224;52.462;16.898;2022-09-17T12:31:22;99027.86;;;18.05;80.22
32873;BME280;19224;52.462;16.898;2022-09-17T12:42:59;99002.98;;;18.04;76.77
32873;BME280;19224;52.462;16.898;2022-09-17T12:55:10;98976.03;;;17.92;81.90
32873;BME280;19224;52.462;16.898;2022-09-17T12:57:55;98990.55;;;17.54;86.77
32873;BME280;19224;52.462;16.898;2022-09-17T13:00:25;98986.20;;;17.57;89.97
32873;BME280;19224;52.462;16.898;2022-09-17T13:03:02;99000.45;;;17.84;90.30
32873;BME280;19224;52.462;16.898;2022-09-17T13:06:09;98999.63;;;17.97;86.24
32873;BME280;19224;52.462;16.898;2022-09-17T13:20:21;99029.55;;;17.30;87.55
32873;BME280;19224;52.462;16.898;2022-09-17T13:22:51;99027.19;;;17.12;91.48
32873;BME280;19224;52.462;16.898;2022-09-17T13:25:26;99052.84;;;16.95;92.73
32873;BME280;19224;52.462;16.898;2022-09-17T13:28:08;99044.94;;;16.68;90.23
32873;BME280;19224;52.462;16.898;2022-09-17T13:31:01;99029.78;;;16.75;89.97
32873;BME280;19224;52.462;16.898;2022-09-17T13:33:58;99028.08;;;16.98;90.71
32873;BME280;19224;52.462;16.898;2022-09-17T13:36:52;99023.59;;;17.21;89.41
32873;BME280;19224;52.462;16.898;2022-09-17T13:39:47;99031.47;;;17.39;88.80
32873;BME280;19224;52.462;16.898;2022-09-17T13:42:24;99022.51;;;16.99;87.99
32873;BME280;19224;52.462;16.898;2022-09-17T13:45:14;99022.52;;;16.85;89.26
32873;BME280;19224;52.462;16.898;2022-09-17T13:47:55;99024.90;;;16.54;89.43
32873;BME280;19224;52.462;16.898;2022-09-17T13:50:33;99016.38;;;16.23;91.45
32873;BME280;19224;52.462;16.898;2022-09-17T13:55:59;99010.55;;;16.72;91.53
32873;BME280;19224;52.462;16.898;2022-09-17T13:58:36;99003.17;;;17.02;91.32
32873;BME280;19224;52.462;16.898;2022-09-17T14:01:12;99004.25;;;17.15;89.66
32873;BME280;19224;52.462;16.898;2022-09-17T14:03:52;98990.15;;;17.40;89.17
32873;BME280;19224;52.462;16.898;2022-09-17T14:08:52;98992.73;;;17.93;86.63
32873;BME280;19224;52.462;16.898;2022-09-17T14:16:47;98990.41;;;19.03;76.74
32873;BME280;19224;52.462;16.898;2022-09-17T14:22:20;98991.48;;;19.20;73.96
32873;BME280;19224;52.462;16.898;2022-09-17T14:24:53;98988.69;;;19.02;75.03
32873;BME280;19224;52.462;16.898;2022-09-17T14:30:34;98994.45;;;19.61;71.39
32873;BME280;19224;52.462;16.898;2022-09-17T14:33:14;99006.03;;;19.24;67.34
32873;BME280;19224;52.462;16.898;2022-09-17T14:36:07;99002.62;;;18.99;67.04
32873;BME280;19224;52.462;16.898;2022-09-17T14:38:51;98996.88;;;19.02;66.12
32873;BME280;19224;52.462;16.898;2022-09-17T14:41:28;98990.02;;;18.85;65.66
32873;BME280;19224;52.462;16.898;2022-09-17T14:44:24;99003.66;;;18.85;66.03
32873;BME280;19224;52.462;16.898;2022-09-17T14:47:12;98996.22;;;18.64;66.25
32873;BME280;19224;52.462;16.898;2022-09-17T14:49:42;98989.66;;;18.70;66.36
32873;BME280;19224;52.462;16.898;2022-09-17T14:52:31;98995.79;;;19.13;65.28
32873;BME280;19224;52.462;16.898;2022-09-17T14:55:25;98994.60;;;19.11;64.70
32873;BME280;19224;52.462;16.898;2022-09-17T14:57:59;98995.30;;;18.86;66.45
32873;BME280;19224;52.462;16.898;2022-09-17T15:00:38;98996.52;;;18.88;66.90
32873;BME280;19224;52.462;16.898;2022-09-17T15:03:20;98994.20;;;19.33;64.20
32873;BME280;19224;52.462;16.898;2022-09-17T15:05:51;98999.42;;;19.44;63.63
32873;BME280;19224;52.462;16.898;2022-09-17T15:08:28;98989.97;;;18.67;66.68
32873;BME280;19224;52.462;16.898;2022-09-17T15:11:09;98993.23;;;18.11;68.73
32873;BME280;19224;52.462;16.898;2022-09-17T15:13:50;99000.45;;;17.65;71.42
32873;BME280;19224;52.462;16.898;2022-09-17T15:16:24;98989.63;;;17.40;72.93
32873;BME280;19224;52.462;16.898;2022-09-17T15:19:00;99002.89;;;17.15;71.86
32873;BME280;19224;52.462;16.898;2022-09-17T15:21:41;98994.48;;;16.93;71.37
32873;BME280;19224;52.462;16.898;2022-09-17T15:27:02;98997.75;;;16.88;73.33
32873;BME280;19224;52.462;16.898;2022-09-17T15:29:33;98994.36;;;16.71;75.12
32873;BME280;19224;52.462;16.898;2022-09-17T15:32:05;99004.49;;;16.93;74.34
32873;BME280;19224;52.462;16.898;2022-09-17T15:34:37;98995.53;;;17.11;74.05
32873;BME280;19224;52.462;16.898;2022-09-17T15:37:18;98997.93;;;17.05;75.13
32873;BME280;19224;52.462;16.898;2022-09-17T15:39:52;98996.09;;;17.05;75.29
32873;BME280;19224;52.462;16.898;2022-09-17T15:42:28;98995.08;;;17.06;74.52
32873;BME280;19224;52.462;16.898;2022-09-17T15:45:26;98988.34;;;17.35;72.32
32873;BME280;19224;52.462;16.898;2022-09-17T15:48:03;98993.13;;;17.65;69.45
32873;BME280;19224;52.462;16.898;2022-09-17T15:50:57;98992.30;;;17.97;68.42
32873;BME280;19224;52.462;16.898;2022-09-17T15:53:32;99000.73;;;17.71;68.45
32873;BME280;19224;52.462;16.898;2022-09-17T15:56:24;99002.32;;;17.55;68.76
32873;BME280;19224;52.462;16.898;2022-09-17T15:58:58;99000.88;;;17.41;70.87
32873;BME280;19224;52.462;16.898;2022-09-17T16:04:29;99006.55;;;17.19;76.12
32873;BME280;19224;52.462;16.898;2022-09-17T16:07:28;99003.77;;;17.15;77.45
32873;BME280;19224;52.462;16.898;2022-09-17T16:10:00;99011.57;;;17.14;77.73
32873;BME280;19224;52.462;16.898;2022-09-17T16:12:39;99012.98;;;16.99;79.06
32873;BME280;19224;52.462;16.898;2022-09-17T16:15:13;99008.56;;;16.84;79.77